Terminal Aerodrome Forecast
Issued by NWS Shreveport, LA

Home | Current Version | Previous Version | Text Only | Print | Product List | Glossary On
Versions: 1 2 3 4 5 6 7 8 9 10 11 12 13 14 15 16 17 18 19 20 21
000
FTUS44 KSHV 191750
TAFLFK
TAF
KLFK 191750Z 1918/2018 21008KT P6SM BKN025
     FM192100 22010G18KT P6SM VCTS BKN040CB
     FM200300 27006KT P6SM SCT050 BKN250
     FM200700 33008KT P6SM SCT250=

USA.gov is the U.S. government's official web portal to all federal, state and local government web resources and services.